sensor_id;sensor_type;location;lat;lon;timestamp;P1;durP1;ratioP1;P2;durP2;ratioP2
57087;SDS011;42965;52.846;6.614;2022-09-23T07:02:56;15.48;;;13.82;;
57087;SDS011;42965;52.846;6.614;2022-09-23T07:05:22;15.10;;;13.07;;
57087;SDS011;42965;52.846;6.614;2022-09-23T07:07:48;16.25;;;14.60;;
57087;SDS011;42965;52.846;6.614;2022-09-23T07:10:14;15.82;;;14.00;;
57087;SDS011;42965;52.846;6.614;2022-09-23T07:12:41;16.35;;;14.52;;
57087;SDS011;42965;52.846;6.614;2022-09-23T07:15:07;16.00;;;14.32;;
57087;SDS011;42965;52.846;6.614;2022-09-23T07:17:34;14.90;;;13.48;;
57087;SDS011;42965;52.846;6.614;2022-09-23T07:20:00;16.02;;;13.68;;
57087;SDS011;42965;52.846;6.614;2022-09-23T07:22:26;15.02;;;13.45;;
57087;SDS011;42965;52.846;6.614;2022-09-23T07:24:53;14.73;;;12.40;;
57087;SDS011;42965;52.846;6.614;2022-09-23T07:27:22;14.85;;;13.27;;
57087;SDS011;42965;52.846;6.614;2022-09-23T07:29:49;15.20;;;13.50;;
57087;SDS011;42965;52.846;6.614;2022-09-23T07:32:16;15.13;;;13.60;;
57087;SDS011;42965;52.846;6.614;2022-09-23T07:34:44;15.20;;;13.77;;
57087;SDS011;42965;52.846;6.614;2022-09-23T07:37:11;15.93;;;12.13;;
57087;SDS011;42965;52.846;6.614;2022-09-23T07:39:41;14.52;;;13.00;;
57087;SDS011;42965;52.846;6.614;2022-09-23T07:42:08;14.52;;;12.75;;
57087;SDS011;42965;52.846;6.614;2022-09-23T07:44:36;14.40;;;12.88;;
57087;SDS011;42965;52.846;6.614;2022-09-23T07:47:02;15.23;;;13.75;;
57087;SDS011;42965;52.846;6.614;2022-09-23T07:49:28;15.30;;;12.98;;
57087;SDS011;42965;52.846;6.614;2022-09-23T07:51:54;13.10;;;11.90;;
57087;SDS011;42965;52.846;6.614;2022-09-23T07:54:20;13.52;;;12.13;;
57087;SDS011;42965;52.846;6.614;2022-09-23T07:56:48;12.70;;;11.35;;
57087;SDS011;42965;52.846;6.614;2022-09-23T07:59:15;13.45;;;11.60;;
57087;SDS011;42965;52.846;6.614;2022-09-23T08:01:44;13.88;;;12.45;;
57087;SDS011;42965;52.846;6.614;2022-09-23T08:04:20;13.88;;;12.52;;
57087;SDS011;42965;52.846;6.614;2022-09-23T08:06:53;17.05;;;11.98;;
57087;SDS011;42965;52.846;6.614;2022-09-23T08:09:23;12.65;;;11.50;;
57087;SDS011;42965;52.846;6.614;2022-09-23T08:11:51;13.02;;;11.68;;
57087;SDS011;42965;52.846;6.614;2022-09-23T08:14:18;12.40;;;11.15;;
57087;SDS011;42965;52.846;6.614;2022-09-23T08:16:46;12.32;;;11.05;;
57087;SDS011;42965;52.846;6.614;2022-09-23T08:19:13;14.90;;;13.07;;
57087;SDS011;42965;52.846;6.614;2022-09-23T08:21:40;13.80;;;11.45;;
57087;SDS011;42965;52.846;6.614;2022-09-23T08:24:08;13.00;;;10.77;;
57087;SDS011;42965;52.846;6.614;2022-09-23T08:26:37;12.40;;;11.18;;
57087;SDS011;42965;52.846;6.614;2022-09-23T08:29:04;13.82;;;11.18;;
57087;SDS011;42965;52.846;6.614;2022-09-23T08:31:31;12.88;;;11.63;;
57087;SDS011;42965;52.846;6.614;2022-09-23T08:33:57;13.63;;;10.88;;
57087;SDS011;42965;52.846;6.614;2022-09-23T08:36:24;11.60;;;10.25;;
57087;SDS011;42965;52.846;6.614;2022-09-23T08:38:51;12.25;;;11.10;;
57087;SDS011;42965;52.846;6.614;2022-09-23T08:41:30;12.95;;;11.70;;
57087;SDS011;42965;52.846;6.614;2022-09-23T08:47:12;12.30;;;10.85;;
57087;SDS011;42965;52.846;6.614;2022-09-23T08:55:33;15.02;;;10.57;;
57087;SDS011;42965;52.846;6.614;2022-09-23T08:58:07;12.00;;;10.57;;
57087;SDS011;42965;52.846;6.614;2022-09-23T09:00:52;12.45;;;11.10;;
57087;SDS011;42965;52.846;6.614;2022-09-23T09:03:29;11.82;;;10.40;;
57087;SDS011;42965;52.846;6.614;2022-09-23T09:06:04;10.95;;;9.88;;
57087;SDS011;42965;52.846;6.614;2022-09-23T09:08:35;12.13;;;10.38;;
57087;SDS011;42965;52.846;6.614;2022-09-23T09:11:03;11.40;;;10.40;;
57087;SDS011;42965;52.846;6.614;2022-09-23T09:13:32;14.02;;;11.15;;
57087;SDS011;42965;52.846;6.614;2022-09-23T09:16:12;11.50;;;10.30;;
57087;SDS011;42965;52.846;6.614;2022-09-23T09:18:52;13.57;;;10.40;;
57087;SDS011;42965;52.846;6.614;2022-09-23T09:21:24;13.18;;;10.65;;
57087;SDS011;42965;52.846;6.614;2022-09-23T09:23:57;10.52;;;9.23;;
57087;SDS011;42965;52.846;6.614;2022-09-23T09:26:42;11.30;;;9.50;;
57087;SDS011;42965;52.846;6.614;2022-09-23T09:29:19;11.45;;;9.75;;
57087;SDS011;42965;52.846;6.614;2022-09-23T09:31:50;12.25;;;9.77;;
57087;SDS011;42965;52.846;6.614;2022-09-23T09:37:14;11.23;;;9.93;;
57087;SDS011;42965;52.846;6.614;2022-09-23T09:39:58;11.10;;;9.88;;
57087;SDS011;42965;52.846;6.614;2022-09-23T09:42:26;11.80;;;9.68;;
57087;SDS011;42965;52.846;6.614;2022-09-23T09:45:02;16.58;;;11.20;;
57087;SDS011;42965;52.846;6.614;2022-09-23T09:47:55;15.68;;;9.85;;
57087;SDS011;42965;52.846;6.614;2022-09-23T09:53:21;13.38;;;9.15;;
57087;SDS011;42965;52.846;6.614;2022-09-23T09:56:08;10.80;;;9.10;;
57087;SDS011;42965;52.846;6.614;2022-09-23T09:58:49;19.48;;;15.18;;
57087;SDS011;42965;52.846;6.614;2022-09-23T10:01:21;14.30;;;12.85;;
57087;SDS011;42965;52.846;6.614;2022-09-23T10:03:50;24.70;;;22.00;;
57087;SDS011;42965;52.846;6.614;2022-09-23T10:08:47;51.63;;;46.15;;
57087;SDS011;42965;52.846;6.614;2022-09-23T10:11:30;27.60;;;24.88;;
57087;SDS011;42965;52.846;6.614;2022-09-23T10:14:13;15.15;;;11.13;;
57087;SDS011;42965;52.846;6.614;2022-09-23T10:16:45;22.67;;;20.05;;
57087;SDS011;42965;52.846;6.614;2022-09-23T10:19:26;10.75;;;9.02;;
57087;SDS011;42965;52.846;6.614;2022-09-23T10:21:57;14.02;;;9.88;;
57087;SDS011;42965;52.846;6.614;2022-09-23T10:24:28;14.68;;;13.27;;
57087;SDS011;42965;52.846;6.614;2022-09-23T10:26:57;12.65;;;10.15;;
57087;SDS011;42965;52.846;6.614;2022-09-23T10:29:32;11.65;;;9.95;;
57087;SDS011;42965;52.846;6.614;2022-09-23T10:32:32;10.90;;;9.63;;
57087;SDS011;42965;52.846;6.614;2022-09-23T10:37:36;11.88;;;10.60;;
57087;SDS011;42965;52.846;6.614;2022-09-23T10:46:45;12.05;;;9.75;;
57087;SDS011;42965;52.846;6.614;2022-09-23T11:01:00;12.75;;;11.25;;
57087;SDS011;42965;52.846;6.614;2022-09-23T11:26:41;13.43;;;11.30;;
57087;SDS011;42965;52.846;6.614;2022-09-23T11:32:32;15.63;;;10.60;;
57087;SDS011;42965;52.846;6.614;2022-09-23T11:37:36;14.32;;;11.85;;
57087;SDS011;42965;52.846;6.614;2022-09-23T11:40:12;12.52;;;11.25;;
57087;SDS011;42965;52.846;6.614;2022-09-23T11:42:52;11.40;;;10.20;;
57087;SDS011;42965;52.846;6.614;2022-09-23T11:45:43;11.93;;;10.63;;
57087;SDS011;42965;52.846;6.614;2022-09-23T11:48:15;14.05;;;10.73;;
57087;SDS011;42965;52.846;6.614;2022-09-23T11:51:05;13.02;;;10.45;;
57087;SDS011;42965;52.846;6.614;2022-09-23T11:53:45;20.60;;;16.10;;
57087;SDS011;42965;52.846;6.614;2022-09-23T11:56:19;14.27;;;11.30;;
57087;SDS011;42965;52.846;6.614;2022-09-23T11:58:56;14.93;;;13.50;;
57087;SDS011;42965;52.846;6.614;2022-09-23T12:01:27;12.73;;;10.93;;
57087;SDS011;42965;52.846;6.614;2022-09-23T12:03:59;13.20;;;11.52;;
57087;SDS011;42965;52.846;6.614;2022-09-23T12:06:44;13.55;;;10.65;;
57087;SDS011;42965;52.846;6.614;2022-09-23T12:09:17;11.93;;;10.38;;
57087;SDS011;42965;52.846;6.614;2022-09-23T12:12:11;13.90;;;11.37;;
57087;SDS011;42965;52.846;6.614;2022-09-23T12:20:18;16.75;;;14.82;;
57087;SDS011;42965;52.846;6.614;2022-09-23T12:23:15;15.35;;;12.85;;
57087;SDS011;42965;52.846;6.614;2022-09-23T12:25:50;12.95;;;11.63;;
57087;SDS011;42965;52.846;6.614;2022-09-23T12:28:58;15.13;;;13.48;;
57087;SDS011;42965;52.846;6.614;2022-09-23T12:31:17;13.20;;;11.85;;
57087;SDS011;42965;52.846;6.614;2022-09-23T12:33:51;13.57;;;12.23;;
57087;SDS011;42965;52.846;6.614;2022-09-23T12:36:25;25.77;;;23.15;;
57087;SDS011;42965;52.846;6.614;2022-09-23T12:39:05;14.00;;;12.38;;
57087;SDS011;42965;52.846;6.614;2022-09-23T12:41:40;15.90;;;11.70;;
57087;SDS011;42965;52.846;6.614;2022-09-23T12:49:39;13.10;;;11.38;;
57087;SDS011;42965;52.846;6.614;2022-09-23T12:54:51;13.48;;;12.15;;
57087;SDS011;42965;52.846;6.614;2022-09-23T13:02:35;14.82;;;13.43;;
57087;SDS011;42965;52.846;6.614;2022-09-23T13:07:54;13.25;;;12.05;;
57087;SDS011;42965;52.846;6.614;2022-09-23T13:13:18;13.40;;;11.88;;
57087;SDS011;42965;52.846;6.614;2022-09-23T13:16:08;14.85;;;11.95;;
57087;SDS011;42965;52.846;6.614;2022-09-23T13:32:46;13.55;;;12.13;;
57087;SDS011;42965;52.846;6.614;2022-09-23T13:35:25;14.60;;;13.15;;
57087;SDS011;42965;52.846;6.614;2022-09-23T13:38:08;13.60;;;11.55;;
57087;SDS011;42965;52.846;6.614;2022-09-23T13:40:45;14.55;;;12.05;;
57087;SDS011;42965;52.846;6.614;2022-09-23T13:43:17;13.88;;;12.48;;
57087;SDS011;42965;52.846;6.614;2022-09-23T13:46:08;12.98;;;11.57;;
57087;SDS011;42965;52.846;6.614;2022-09-23T13:48:38;13.48;;;12.10;;
57087;SDS011;42965;52.846;6.614;2022-09-23T13:51:08;14.85;;;12.10;;
57087;SDS011;42965;52.846;6.614;2022-09-23T13:53:36;13.18;;;11.80;;
57087;SDS011;42965;52.846;6.614;2022-09-23T13:56:13;12.93;;;11.50;;
57087;SDS011;42965;52.846;6.614;2022-09-23T13:58:40;13.38;;;11.93;;
57087;SDS011;42965;52.846;6.614;2022-09-23T14:01:21;13.50;;;12.05;;
57087;SDS011;42965;52.846;6.614;2022-09-23T14:03:53;14.70;;;11.75;;
57087;SDS011;42965;52.846;6.614;2022-09-23T14:06:19;14.68;;;11.60;;
57087;SDS011;42965;52.846;6.614;2022-09-23T14:08:48;13.30;;;11.45;;
57087;SDS011;42965;52.846;6.614;2022-09-23T14:11:16;12.10;;;10.80;;
57087;SDS011;42965;52.846;6.614;2022-09-23T14:13:44;12.43;;;10.40;;
57087;SDS011;42965;52.846;6.614;2022-09-23T14:16:13;16.05;;;11.15;;
57087;SDS011;42965;52.846;6.614;2022-09-23T14:18:44;13.32;;;11.35;;
57087;SDS011;42965;52.846;6.614;2022-09-23T14:21:31;11.77;;;10.60;;
57087;SDS011;42965;52.846;6.614;2022-09-23T14:26:34;11.52;;;10.27;;
57087;SDS011;42965;52.846;6.614;2022-09-23T14:29:02;14.90;;;10.65;;
57087;SDS011;42965;52.846;6.614;2022-09-23T14:31:29;12.52;;;10.82;;
57087;SDS011;42965;52.846;6.614;2022-09-23T14:33:57;13.75;;;10.05;;
57087;SDS011;42965;52.846;6.614;2022-09-23T14:36:23;14.00;;;10.50;;
57087;SDS011;42965;52.846;6.614;2022-09-23T14:39:08;11.25;;;10.15;;
57087;SDS011;42965;52.846;6.614;2022-09-23T14:41:36;11.00;;;9.93;;
57087;SDS011;42965;52.846;6.614;2022-09-23T14:44:05;12.07;;;10.75;;
57087;SDS011;42965;52.846;6.614;2022-09-23T14:46:42;11.30;;;10.13;;
57087;SDS011;42965;52.846;6.614;2022-09-23T14:49:25;12.00;;;10.63;;
57087;SDS011;42965;52.846;6.614;2022-09-23T14:56:47;11.35;;;10.07;;
57087;SDS011;42965;52.846;6.614;2022-09-23T14:59:23;13.60;;;10.18;;
57087;SDS011;42965;52.846;6.614;2022-09-23T15:01:52;12.45;;;10.80;;
57087;SDS011;42965;52.846;6.614;2022-09-23T15:06:54;18.38;;;12.15;;
57087;SDS011;42965;52.846;6.614;2022-09-23T15:12:13;12.20;;;10.93;;
57087;SDS011;42965;52.846;6.614;2022-09-23T15:14:44;13.82;;;11.45;;
57087;SDS011;42965;52.846;6.614;2022-09-23T15:19:54;18.13;;;11.10;;
57087;SDS011;42965;52.846;6.614;2022-09-23T15:22:23;14.02;;;12.55;;
57087;SDS011;42965;52.846;6.614;2022-09-23T15:24:50;15.13;;;13.55;;
57087;SDS011;42965;52.846;6.614;2022-09-23T15:27:39;14.43;;;13.05;;
57087;SDS011;42965;52.846;6.614;2022-09-23T15:30:15;14.13;;;12.73;;
57087;SDS011;42965;52.846;6.614;2022-09-23T15:32:43;15.20;;;11.70;;
57087;SDS011;42965;52.846;6.614;2022-09-23T15:35:12;14.50;;;12.65;;
57087;SDS011;42965;52.846;6.614;2022-09-23T15:37:43;14.00;;;12.60;;
57087;SDS011;42965;52.846;6.614;2022-09-23T15:40:21;15.52;;;12.10;;
57087;SDS011;42965;52.846;6.614;2022-09-23T15:42:49;13.73;;;12.32;;
57087;SDS011;42965;52.846;6.614;2022-09-23T15:45:25;13.25;;;12.00;;
57087;SDS011;42965;52.846;6.614;2022-09-23T15:48:03;16.25;;;12.77;;
57087;SDS011;42965;52.846;6.614;2022-09-23T15:50:33;13.88;;;11.77;;
57087;SDS011;42965;52.846;6.614;2022-09-23T15:53:00;15.50;;;11.68;;
57087;SDS011;42965;52.846;6.614;2022-09-23T15:55:26;11.88;;;10.65;;
57087;SDS011;42965;52.846;6.614;2022-09-23T15:57:53;12.15;;;10.80;;
57087;SDS011;42965;52.846;6.614;2022-09-23T16:00:19;13.07;;;11.77;;
57087;SDS011;42965;52.846;6.614;2022-09-23T16:02:46;11.77;;;10.60;;
57087;SDS011;42965;52.846;6.614;2022-09-23T16:05:15;12.20;;;10.23;;
57087;SDS011;42965;52.846;6.614;2022-09-23T16:07:52;10.38;;;9.38;;
57087;SDS011;42965;52.846;6.614;2022-09-23T16:10:19;12.68;;;10.38;;
57087;SDS011;42965;52.846;6.614;2022-09-23T16:12:45;11.85;;;10.73;;
57087;SDS011;42965;52.846;6.614;2022-09-23T16:15:12;13.15;;;10.80;;
57087;SDS011;42965;52.846;6.614;2022-09-23T16:17:43;12.05;;;10.85;;
57087;SDS011;42965;52.846;6.614;2022-09-23T16:20:10;13.63;;;11.80;;
57087;SDS011;42965;52.846;6.614;2022-09-23T16:22:40;13.02;;;10.85;;
57087;SDS011;42965;52.846;6.614;2022-09-23T16:25:08;12.15;;;10.95;;
57087;SDS011;42965;52.846;6.614;2022-09-23T16:27:36;14.13;;;11.75;;
57087;SDS011;42965;52.846;6.614;2022-09-23T16:30:04;12.57;;;10.52;;
57087;SDS011;42965;52.846;6.614;2022-09-23T16:32:31;13.25;;;11.30;;
57087;SDS011;42965;52.846;6.614;2022-09-23T16:34:57;12.20;;;10.88;;
57087;SDS011;42965;52.846;6.614;2022-09-23T16:37:23;13.07;;;11.77;;
57087;SDS011;42965;52.846;6.614;2022-09-23T16:39:51;14.60;;;11.80;;
57087;SDS011;42965;52.846;6.614;2022-09-23T16:42:17;14.00;;;12.15;;
57087;SDS011;42965;52.846;6.614;2022-09-23T16:44:43;18.50;;;16.60;;
57087;SDS011;42965;52.846;6.614;2022-09-23T16:47:09;14.00;;;12.40;;
57087;SDS011;42965;52.846;6.614;2022-09-23T16:49:35;14.88;;;13.10;;
57087;SDS011;42965;52.846;6.614;2022-09-23T16:52:02;14.45;;;13.05;;
57087;SDS011;42965;52.846;6.614;2022-09-23T16:54:28;16.98;;;12.70;;
57087;SDS011;42965;52.846;6.614;2022-09-23T16:56:54;14.63;;;13.13;;
57087;SDS011;42965;52.846;6.614;2022-09-23T16:59:20;13.55;;;12.10;;
57087;SDS011;42965;52.846;6.614;2022-09-23T17:01:46;13.07;;;11.15;;
57087;SDS011;42965;52.846;6.614;2022-09-23T17:04:31;16.17;;;12.75;;
57087;SDS011;42965;52.846;6.614;2022-09-23T17:06:57;12.50;;;11.23;;
57087;SDS011;42965;52.846;6.614;2022-09-23T17:09:25;13.63;;;12.13;;
57087;SDS011;42965;52.846;6.614;2022-09-23T17:12:35;12.82;;;11.52;;
57087;SDS011;42965;52.846;6.614;2022-09-23T17:14:47;13.95;;;12.65;;
57087;SDS011;42965;52.846;6.614;2022-09-23T17:17:13;15.60;;;12.85;;
57087;SDS011;42965;52.846;6.614;2022-09-23T17:19:40;12.55;;;11.25;;
57087;SDS011;42965;52.846;6.614;2022-09-23T17:22:06;13.25;;;11.93;;
57087;SDS011;42965;52.846;6.614;2022-09-23T17:24:32;12.60;;;10.73;;
57087;SDS011;42965;52.846;6.614;2022-09-23T17:26:58;14.85;;;12.85;;
57087;SDS011;42965;52.846;6.614;2022-09-23T17:29:24;12.95;;;11.63;;
57087;SDS011;42965;52.846;6.614;2022-09-23T17:31:51;14.80;;;13.27;;
57087;SDS011;42965;52.846;6.614;2022-09-23T17:34:17;12.85;;;11.57;;
57087;SDS011;42965;52.846;6.614;2022-09-23T17:36:43;14.68;;;12.10;;
57087;SDS011;42965;52.846;6.614;2022-09-23T17:39:10;15.05;;;13.57;;
57087;SDS011;42965;52.846;6.614;2022-09-23T17:41:36;14.48;;;12.05;;
57087;SDS011;42965;52.846;6.614;2022-09-23T17:44:03;13.32;;;11.95;;
57087;SDS011;42965;52.846;6.614;2022-09-23T17:46:29;16.58;;;13.20;;
57087;SDS011;42965;52.846;6.614;2022-09-23T17:48:56;15.32;;;13.82;;
57087;SDS011;42965;52.846;6.614;2022-09-23T17:51:22;14.98;;;13.48;;
57087;SDS011;42965;52.846;6.614;2022-09-23T17:53:49;15.75;;;13.45;;
57087;SDS011;42965;52.846;6.614;2022-09-23T17:56:16;14.18;;;12.77;;
57087;SDS011;42965;52.846;6.614;2022-09-23T17:58:44;16.63;;;12.27;;
57087;SDS011;42965;52.846;6.614;2022-09-23T18:01:19;14.43;;;13.00;;
57087;SDS011;42965;52.846;6.614;2022-09-23T18:03:56;15.23;;;13.73;;
57087;SDS011;42965;52.846;6.614;2022-09-23T18:06:25;16.83;;;12.98;;
57087;SDS011;42965;52.846;6.614;2022-09-23T18:08:53;14.70;;;13.18;;
57087;SDS011;42965;52.846;6.614;2022-09-23T18:11:21;14.90;;;13.15;;
57087;SDS011;42965;52.846;6.614;2022-09-23T18:13:57;15.02;;;13.50;;
57087;SDS011;42965;52.846;6.614;2022-09-23T18:16:37;16.15;;;14.40;;
57087;SDS011;42965;52.846;6.614;2022-09-23T18:19:05;17.38;;;14.88;;
57087;SDS011;42965;52.846;6.614;2022-09-23T18:21:33;14.68;;;13.20;;
57087;SDS011;42965;52.846;6.614;2022-09-23T18:24:00;16.30;;;14.63;;
57087;SDS011;42965;52.846;6.614;2022-09-23T18:26:27;16.50;;;14.90;;
57087;SDS011;42965;52.846;6.614;2022-09-23T18:28:54;21.42;;;16.02;;
57087;SDS011;42965;52.846;6.614;2022-09-23T18:31:25;17.83;;;16.23;;
57087;SDS011;42965;52.846;6.614;2022-09-23T18:34:00;18.27;;;15.63;;
57087;SDS011;42965;52.846;6.614;2022-09-23T18:36:28;17.83;;;16.02;;
57087;SDS011;42965;52.846;6.614;2022-09-23T18:38:54;18.48;;;16.70;;
57087;SDS011;42965;52.846;6.614;2022-09-23T18:41:21;18.65;;;16.85;;
57087;SDS011;42965;52.846;6.614;2022-09-23T18:43:47;19.27;;;16.25;;
57087;SDS011;42965;52.846;6.614;2022-09-23T18:46:14;18.75;;;16.83;;
57087;SDS011;42965;52.846;6.614;2022-09-23T18:48:43;19.95;;;17.90;;
57087;SDS011;42965;52.846;6.614;2022-09-23T18:51:28;20.95;;;18.08;;
57087;SDS011;42965;52.846;6.614;2022-09-23T18:53:55;22.27;;;19.98;;
57087;SDS011;42965;52.846;6.614;2022-09-23T18:56:23;21.70;;;19.50;;
57087;SDS011;42965;52.846;6.614;2022-09-23T18:58:55;23.50;;;20.67;;
57087;SDS011;42965;52.846;6.614;2022-09-23T19:01:22;22.08;;;19.85;;
57087;SDS011;42965;52.846;6.614;2022-09-23T19:03:52;21.58;;;19.20;;
57087;SDS011;42965;52.846;6.614;2022-09-23T19:06:23;21.33;;;19.00;;
57087;SDS011;42965;52.846;6.614;2022-09-23T19:08:50;23.00;;;20.70;;
57087;SDS011;42965;52.846;6.614;2022-09-23T19:11:17;21.27;;;19.10;;
57087;SDS011;42965;52.846;6.614;2022-09-23T19:13:44;22.10;;;19.98;;
57087;SDS011;42965;52.846;6.614;2022-09-23T19:16:12;20.77;;;18.80;;
57087;SDS011;42965;52.846;6.614;2022-09-23T19:18:40;20.73;;;18.88;;
57087;SDS011;42965;52.846;6.614;2022-09-23T19:21:11;21.47;;;19.37;;
57087;SDS011;42965;52.846;6.614;2022-09-23T19:23:38;21.95;;;19.83;;
57087;SDS011;42965;52.846;6.614;2022-09-23T19:26:10;22.27;;;19.92;;
57087;SDS011;42965;52.846;6.614;2022-09-23T19:28:37;22.02;;;19.92;;
57087;SDS011;42965;52.846;6.614;2022-09-23T19:31:07;22.73;;;20.42;;
57087;SDS011;42965;52.846;6.614;2022-09-23T19:33:35;19.90;;;18.00;;
57087;SDS011;42965;52.846;6.614;2022-09-23T19:36:03;18.27;;;16.55;;
57087;SDS011;42965;52.846;6.614;2022-09-23T19:38:30;19.38;;;17.58;;
57087;SDS011;42965;52.846;6.614;2022-09-23T19:40:56;19.80;;;17.83;;
57087;SDS011;42965;52.846;6.614;2022-09-23T19:43:28;20.63;;;18.63;;
57087;SDS011;42965;52.846;6.614;2022-09-23T19:45:54;23.80;;;21.27;;
57087;SDS011;42965;52.846;6.614;2022-09-23T19:48:20;22.92;;;20.58;;
57087;SDS011;42965;52.846;6.614;2022-09-23T19:50:46;21.95;;;19.92;;
57087;SDS011;42965;52.846;6.614;2022-09-23T19:53:13;21.70;;;19.42;;
57087;SDS011;42965;52.846;6.614;2022-09-23T19:55:40;20.52;;;17.65;;
57087;SDS011;42965;52.846;6.614;2022-09-23T19:58:08;24.25;;;20.02;;
57087;SDS011;42965;52.846;6.614;2022-09-23T20:00:35;22.08;;;19.85;;
57087;SDS011;42965;52.846;6.614;2022-09-23T20:03:01;21.08;;;19.08;;
57087;SDS011;42965;52.846;6.614;2022-09-23T20:05:27;21.98;;;19.45;;
57087;SDS011;42965;52.846;6.614;2022-09-23T20:07:54;21.90;;;19.55;;
57087;SDS011;42965;52.846;6.614;2022-09-23T20:10:20;23.58;;;19.73;;
57087;SDS011;42965;52.846;6.614;2022-09-23T20:12:47;24.70;;;21.98;;
57087;SDS011;42965;52.846;6.614;2022-09-23T20:15:14;21.30;;;19.30;;
57087;SDS011;42965;52.846;6.614;2022-09-23T20:17:41;26.45;;;23.95;;
57087;SDS011;42965;52.846;6.614;2022-09-23T20:20:07;25.38;;;22.67;;
57087;SDS011;42965;52.846;6.614;2022-09-23T20:22:35;25.75;;;22.73;;
57087;SDS011;42965;52.846;6.614;2022-09-23T20:25:02;26.90;;;24.10;;
57087;SDS011;42965;52.846;6.614;2022-09-23T20:27:29;24.85;;;22.48;;
57087;SDS011;42965;52.846;6.614;2022-09-23T20:29:56;24.90;;;22.27;;
57087;SDS011;42965;52.846;6.614;2022-09-23T20:32:23;26.23;;;23.67;;
57087;SDS011;42965;52.846;6.614;2022-09-23T20:34:50;25.30;;;22.83;;
57087;SDS011;42965;52.846;6.614;2022-09-23T20:37:16;26.77;;;24.27;;
57087;SDS011;42965;52.846;6.614;2022-09-23T20:39:46;27.88;;;24.77;;
57087;SDS011;42965;52.846;6.614;2022-09-23T20:42:12;27.50;;;24.52;;
57087;SDS011;42965;52.846;6.614;2022-09-23T20:44:40;26.95;;;24.25;;
57087;SDS011;42965;52.846;6.614;2022-09-23T20:47:10;26.17;;;23.58;;
57087;SDS011;42965;52.846;6.614;2022-09-23T20:49:41;27.55;;;24.58;;
57087;SDS011;42965;52.846;6.614;2022-09-23T20:52:09;29.50;;;26.35;;
57087;SDS011;42965;52.846;6.614;2022-09-23T20:54:36;30.02;;;26.88;;
57087;SDS011;42965;52.846;6.614;2022-09-23T20:57:10;28.00;;;25.10;;
57087;SDS011;42965;52.846;6.614;2022-09-23T20:59:37;29.42;;;26.27;;
57087;SDS011;42965;52.846;6.614;2022-09-23T21:02:05;30.08;;;26.98;;
57087;SDS011;42965;52.846;6.614;2022-09-23T21:04:32;28.63;;;25.85;;
57087;SDS011;42965;52.846;6.614;2022-09-23T21:06:59;29.15;;;26.35;;
57087;SDS011;42965;52.846;6.614;2022-09-23T21:09:26;30.17;;;27.08;;
57087;SDS011;42965;52.846;6.614;2022-09-23T21:11:55;31.58;;;28.25;;
57087;SDS011;42965;52.846;6.614;2022-09-23T21:14:21;33.35;;;29.90;;
57087;SDS011;42965;52.846;6.614;2022-09-23T21:16:48;31.70;;;28.55;;
57087;SDS011;42965;52.846;6.614;2022-09-23T21:19:15;31.83;;;28.50;;
57087;SDS011;42965;52.846;6.614;2022-09-23T21:21:44;34.35;;;30.65;;
57087;SDS011;42965;52.846;6.614;2022-09-23T21:24:10;33.97;;;30.55;;
57087;SDS011;42965;52.846;6.614;2022-09-23T21:26:36;33.75;;;29.63;;
57087;SDS011;42965;52.846;6.614;2022-09-23T21:29:03;32.22;;;28.98;;
57087;SDS011;42965;52.846;6.614;2022-09-23T21:31:30;35.90;;;32.30;;
57087;SDS011;42965;52.846;6.614;2022-09-23T21:36:26;33.22;;;29.88;;
57087;SDS011;42965;52.846;6.614;2022-09-23T21:38:54;33.70;;;30.40;;
57087;SDS011;42965;52.846;6.614;2022-09-23T21:41:20;33.90;;;30.48;;
57087;SDS011;42965;52.846;6.614;2022-09-23T21:43:48;33.72;;;30.20;;
57087;SDS011;42965;52.846;6.614;2022-09-23T21:46:15;32.50;;;29.40;;
57087;SDS011;42965;52.846;6.614;2022-09-23T21:48:46;34.35;;;30.73;;
57087;SDS011;42965;52.846;6.614;2022-09-23T21:51:15;35.05;;;31.45;;
57087;SDS011;42965;52.846;6.614;2022-09-23T21:53:43;35.38;;;31.77;;
57087;SDS011;42965;52.846;6.614;2022-09-23T21:56:17;34.17;;;30.83;;
57087;SDS011;42965;52.846;6.614;2022-09-23T21:58:48;35.50;;;32.00;;
57087;SDS011;42965;52.846;6.614;2022-09-23T22:01:23;33.92;;;30.55;;
57087;SDS011;42965;52.846;6.614;2022-09-23T22:03:52;33.15;;;29.92;;
57087;SDS011;42965;52.846;6.614;2022-09-23T22:06:20;36.85;;;33.25;;
57087;SDS011;42965;52.846;6.614;2022-09-23T22:08:49;38.03;;;34.40;;
57087;SDS011;42965;52.846;6.614;2022-09-23T22:11:21;37.40;;;33.72;;
57087;SDS011;42965;52.846;6.614;2022-09-23T22:14:09;36.05;;;32.15;;
57087;SDS011;42965;52.846;6.614;2022-09-23T22:16:36;35.20;;;31.75;;
57087;SDS011;42965;52.846;6.614;2022-09-23T22:19:04;38.17;;;33.85;;
57087;SDS011;42965;52.846;6.614;2022-09-23T22:21:31;39.08;;;35.28;;
57087;SDS011;42965;52.846;6.614;2022-09-23T22:23:59;39.00;;;35.10;;
57087;SDS011;42965;52.846;6.614;2022-09-23T22:26:26;38.05;;;34.03;;
57087;SDS011;42965;52.846;6.614;2022-09-23T22:28:53;39.22;;;35.13;;
57087;SDS011;42965;52.846;6.614;2022-09-23T22:31:38;39.78;;;35.75;;
57087;SDS011;42965;52.846;6.614;2022-09-23T22:34:22;38.67;;;34.60;;
57087;SDS011;42965;52.846;6.614;2022-09-23T22:36:53;40.63;;;36.42;;
57087;SDS011;42965;52.846;6.614;2022-09-23T22:39:21;42.45;;;35.83;;
57087;SDS011;42965;52.846;6.614;2022-09-23T22:41:48;42.17;;;37.97;;
57087;SDS011;42965;52.846;6.614;2022-09-23T22:44:18;43.42;;;39.13;;
57087;SDS011;42965;52.846;6.614;2022-09-23T22:46:45;42.30;;;37.97;;
57087;SDS011;42965;52.846;6.614;2022-09-23T22:49:12;44.20;;;39.58;;
57087;SDS011;42965;52.846;6.614;2022-09-23T22:51:40;42.90;;;38.50;;
57087;SDS011;42965;52.846;6.614;2022-09-23T22:54:07;40.97;;;36.78;;
57087;SDS011;42965;52.846;6.614;2022-09-23T22:56:33;45.00;;;40.58;;
57087;SDS011;42965;52.846;6.614;2022-09-23T22:59:00;46.13;;;41.20;;
57087;SDS011;42965;52.846;6.614;2022-09-23T23:01:27;44.47;;;39.97;;
57087;SDS011;42965;52.846;6.614;2022-09-23T23:03:55;48.47;;;43.65;;
57087;SDS011;42965;52.846;6.614;2022-09-23T23:06:22;47.13;;;42.03;;
57087;SDS011;42965;52.846;6.614;2022-09-23T23:08:49;46.00;;;41.33;;
57087;SDS011;42965;52.846;6.614;2022-09-23T23:11:15;48.00;;;43.25;;
57087;SDS011;42965;52.846;6.614;2022-09-23T23:13:41;48.75;;;43.58;;
57087;SDS011;42965;52.846;6.614;2022-09-23T23:16:11;49.38;;;44.25;;
57087;SDS011;42965;52.846;6.614;2022-09-23T23:18:38;49.15;;;44.17;;
57087;SDS011;42965;52.846;6.614;2022-09-23T23:21:16;50.72;;;45.55;;
57087;SDS011;42965;52.846;6.614;2022-09-23T23:23:45;50.28;;;45.17;;
57087;SDS011;42965;52.846;6.614;2022-09-23T23:26:23;50.35;;;45.20;;
57087;SDS011;42965;52.846;6.614;2022-09-23T23:28:51;49.40;;;44.42;;
57087;SDS011;42965;52.846;6.614;2022-09-23T23:31:18;51.55;;;46.03;;
57087;SDS011;42965;52.846;6.614;2022-09-23T23:33:46;50.90;;;45.35;;
57087;SDS011;42965;52.846;6.614;2022-09-23T23:36:13;51.55;;;45.97;;
57087;SDS011;42965;52.846;6.614;2022-09-23T23:38:42;51.88;;;46.60;;
57087;SDS011;42965;52.846;6.614;2022-09-23T23:41:14;52.05;;;46.58;;
57087;SDS011;42965;52.846;6.614;2022-09-23T23:43:42;52.38;;;47.00;;
57087;SDS011;42965;52.846;6.614;2022-09-23T23:46:10;53.80;;;48.03;;